sensor_id;sensor_type;location;lat;lon;timestamp;P1;durP1;ratioP1;P2;durP2;ratioP2
12925;SDS011;6529;50.566;9.774;2022-08-01T00:00:07;3.83;;;2.50;;
12925;SDS011;6529;50.566;9.774;2022-08-01T00:02:33;3.03;;;2.60;;
12925;SDS011;6529;50.566;9.774;2022-08-01T00:04:59;4.85;;;2.70;;
12925;SDS011;6529;50.566;9.774;2022-08-01T00:07:25;2.67;;;2.47;;
12925;SDS011;6529;50.566;9.774;2022-08-01T00:09:51;3.45;;;2.50;;
12925;SDS011;6529;50.566;9.774;2022-08-01T00:12:16;3.20;;;2.50;;
12925;SDS011;6529;50.566;9.774;2022-08-01T00:14:42;2.67;;;2.47;;
12925;SDS011;6529;50.566;9.774;2022-08-01T00:17:08;3.15;;;2.67;;
12925;SDS011;6529;50.566;9.774;2022-08-01T00:19:33;3.72;;;2.70;;
12925;SDS011;6529;50.566;9.774;2022-08-01T00:21:59;4.32;;;2.50;;
12925;SDS011;6529;50.566;9.774;2022-08-01T00:24:25;3.08;;;2.42;;
12925;SDS011;6529;50.566;9.774;2022-08-01T00:26:50;2.75;;;2.55;;
12925;SDS011;6529;50.566;9.774;2022-08-01T00:29:16;3.30;;;2.60;;
12925;SDS011;6529;50.566;9.774;2022-08-01T00:31:41;3.05;;;2.75;;
12925;SDS011;6529;50.566;9.774;2022-08-01T00:34:07;3.00;;;2.58;;
12925;SDS011;6529;50.566;9.774;2022-08-01T00:36:32;3.65;;;2.42;;
12925;SDS011;6529;50.566;9.774;2022-08-01T00:38:58;2.72;;;2.47;;
12925;SDS011;6529;50.566;9.774;2022-08-01T00:41:24;2.33;;;2.20;;
12925;SDS011;6529;50.566;9.774;2022-08-01T00:43:49;2.65;;;2.45;;
12925;SDS011;6529;50.566;9.774;2022-08-01T00:46:15;3.22;;;2.40;;
12925;SDS011;6529;50.566;9.774;2022-08-01T00:48:40;2.65;;;2.45;;
12925;SDS011;6529;50.566;9.774;2022-08-01T00:51:06;4.03;;;2.42;;
12925;SDS011;6529;50.566;9.774;2022-08-01T00:53:33;2.55;;;2.20;;
12925;SDS011;6529;50.566;9.774;2022-08-01T00:55:59;2.85;;;2.60;;
12925;SDS011;6529;50.566;9.774;2022-08-01T00:58:25;2.78;;;2.53;;
12925;SDS011;6529;50.566;9.774;2022-08-01T01:00:53;2.90;;;2.60;;
12925;SDS011;6529;50.566;9.774;2022-08-01T01:03:19;3.50;;;2.40;;
12925;SDS011;6529;50.566;9.774;2022-08-01T01:05:48;3.80;;;2.60;;
12925;SDS011;6529;50.566;9.774;2022-08-01T01:08:29;2.40;;;2.20;;
12925;SDS011;6529;50.566;9.774;2022-08-01T01:11:13;3.70;;;2.35;;
12925;SDS011;6529;50.566;9.774;2022-08-01T01:13:49;2.60;;;2.40;;
12925;SDS011;6529;50.566;9.774;2022-08-01T01:16:17;2.97;;;2.63;;
12925;SDS011;6529;50.566;9.774;2022-08-01T01:18:55;3.35;;;2.50;;
12925;SDS011;6529;50.566;9.774;2022-08-01T01:29:35;2.67;;;2.33;;
12925;SDS011;6529;50.566;9.774;2022-08-01T01:34:42;3.28;;;2.70;;
12925;SDS011;6529;50.566;9.774;2022-08-01T01:37:12;2.60;;;2.40;;
12925;SDS011;6529;50.566;9.774;2022-08-01T01:39:42;3.63;;;2.63;;
12925;SDS011;6529;50.566;9.774;2022-08-01T01:42:09;2.78;;;2.53;;
12925;SDS011;6529;50.566;9.774;2022-08-01T01:44:36;2.60;;;2.40;;
12925;SDS011;6529;50.566;9.774;2022-08-01T01:47:03;2.60;;;2.17;;
12925;SDS011;6529;50.566;9.774;2022-08-01T01:49:30;2.50;;;2.30;;
12925;SDS011;6529;50.566;9.774;2022-08-01T01:51:57;2.60;;;2.40;;
12925;SDS011;6529;50.566;9.774;2022-08-01T01:54:24;2.50;;;2.30;;
12925;SDS011;6529;50.566;9.774;2022-08-01T01:56:55;2.70;;;2.50;;
12925;SDS011;6529;50.566;9.774;2022-08-01T01:59:25;3.83;;;2.30;;
12925;SDS011;6529;50.566;9.774;2022-08-01T02:01:53;2.72;;;2.30;;
12925;SDS011;6529;50.566;9.774;2022-08-01T02:04:23;2.20;;;2.03;;
12925;SDS011;6529;50.566;9.774;2022-08-01T02:06:51;2.40;;;2.20;;
12925;SDS011;6529;50.566;9.774;2022-08-01T02:09:18;2.80;;;2.45;;
12925;SDS011;6529;50.566;9.774;2022-08-01T02:11:46;2.20;;;2.08;;
12925;SDS011;6529;50.566;9.774;2022-08-01T02:14:13;2.20;;;2.00;;
12925;SDS011;6529;50.566;9.774;2022-08-01T02:16:41;2.42;;;2.22;;
12925;SDS011;6529;50.566;9.774;2022-08-01T02:19:09;2.50;;;2.30;;
12925;SDS011;6529;50.566;9.774;2022-08-01T02:21:40;2.22;;;2.08;;
12925;SDS011;6529;50.566;9.774;2022-08-01T02:27:00;4.60;;;2.53;;
12925;SDS011;6529;50.566;9.774;2022-08-01T02:29:36;2.72;;;2.30;;
12925;SDS011;6529;50.566;9.774;2022-08-01T02:32:07;2.73;;;2.10;;
12925;SDS011;6529;50.566;9.774;2022-08-01T02:34:39;2.95;;;2.30;;
12925;SDS011;6529;50.566;9.774;2022-08-01T02:37:07;2.40;;;2.20;;
12925;SDS011;6529;50.566;9.774;2022-08-01T02:39:34;2.50;;;2.30;;
12925;SDS011;6529;50.566;9.774;2022-08-01T02:42:03;2.60;;;2.40;;
12925;SDS011;6529;50.566;9.774;2022-08-01T02:44:32;2.93;;;2.63;;
12925;SDS011;6529;50.566;9.774;2022-08-01T02:47:02;2.63;;;2.43;;
12925;SDS011;6529;50.566;9.774;2022-08-01T02:49:30;2.67;;;2.43;;
12925;SDS011;6529;50.566;9.774;2022-08-01T02:51:58;4.87;;;2.47;;
12925;SDS011;6529;50.566;9.774;2022-08-01T02:54:26;2.90;;;2.60;;
12925;SDS011;6529;50.566;9.774;2022-08-01T02:56:54;3.07;;;2.80;;
12925;SDS011;6529;50.566;9.774;2022-08-01T02:59:22;2.80;;;2.60;;
12925;SDS011;6529;50.566;9.774;2022-08-01T03:01:51;3.70;;;2.57;;
12925;SDS011;6529;50.566;9.774;2022-08-01T03:04:20;2.93;;;2.70;;
12925;SDS011;6529;50.566;9.774;2022-08-01T03:06:48;3.70;;;2.80;;
12925;SDS011;6529;50.566;9.774;2022-08-01T03:09:15;3.20;;;2.60;;
12925;SDS011;6529;50.566;9.774;2022-08-01T03:11:41;2.90;;;2.70;;
12925;SDS011;6529;50.566;9.774;2022-08-01T03:14:09;2.63;;;2.43;;
12925;SDS011;6529;50.566;9.774;2022-08-01T03:16:37;2.80;;;2.60;;
12925;SDS011;6529;50.566;9.774;2022-08-01T03:19:05;3.10;;;2.87;;
12925;SDS011;6529;50.566;9.774;2022-08-01T03:21:33;3.10;;;2.80;;
12925;SDS011;6529;50.566;9.774;2022-08-01T03:24:00;3.03;;;2.70;;
12925;SDS011;6529;50.566;9.774;2022-08-01T03:26:29;3.13;;;2.77;;
12925;SDS011;6529;50.566;9.774;2022-08-01T03:28:58;2.63;;;2.43;;
12925;SDS011;6529;50.566;9.774;2022-08-01T03:31:27;3.17;;;2.87;;
12925;SDS011;6529;50.566;9.774;2022-08-01T03:33:55;2.80;;;2.60;;
12925;SDS011;6529;50.566;9.774;2022-08-01T03:36:21;3.47;;;2.60;;
12925;SDS011;6529;50.566;9.774;2022-08-01T03:38:51;2.97;;;2.70;;
12925;SDS011;6529;50.566;9.774;2022-08-01T03:41:21;3.23;;;2.93;;
12925;SDS011;6529;50.566;9.774;2022-08-01T03:44:07;3.50;;;2.93;;
12925;SDS011;6529;50.566;9.774;2022-08-01T03:46:49;3.30;;;3.00;;
12925;SDS011;6529;50.566;9.774;2022-08-01T03:49:21;3.20;;;2.90;;
12925;SDS011;6529;50.566;9.774;2022-08-01T03:51:49;3.30;;;3.00;;
12925;SDS011;6529;50.566;9.774;2022-08-01T03:54:20;3.27;;;2.90;;
12925;SDS011;6529;50.566;9.774;2022-08-01T03:56:48;3.27;;;2.70;;
12925;SDS011;6529;50.566;9.774;2022-08-01T03:59:16;3.20;;;2.90;;
12925;SDS011;6529;50.566;9.774;2022-08-01T04:01:43;2.93;;;2.73;;
12925;SDS011;6529;50.566;9.774;2022-08-01T04:04:10;3.13;;;2.90;;
12925;SDS011;6529;50.566;9.774;2022-08-01T04:06:37;3.10;;;2.90;;
12925;SDS011;6529;50.566;9.774;2022-08-01T04:09:03;3.10;;;2.80;;
12925;SDS011;6529;50.566;9.774;2022-08-01T04:11:29;2.93;;;2.73;;
12925;SDS011;6529;50.566;9.774;2022-08-01T04:13:55;2.90;;;2.70;;
12925;SDS011;6529;50.566;9.774;2022-08-01T04:16:21;3.30;;;2.97;;
12925;SDS011;6529;50.566;9.774;2022-08-01T04:18:47;3.03;;;2.73;;
12925;SDS011;6529;50.566;9.774;2022-08-01T04:21:13;3.40;;;3.10;;
12925;SDS011;6529;50.566;9.774;2022-08-01T04:23:40;3.53;;;3.00;;
12925;SDS011;6529;50.566;9.774;2022-08-01T04:26:08;4.00;;;3.43;;
12925;SDS011;6529;50.566;9.774;2022-08-01T04:28:36;3.33;;;3.03;;
12925;SDS011;6529;50.566;9.774;2022-08-01T04:31:02;3.60;;;3.30;;
12925;SDS011;6529;50.566;9.774;2022-08-01T04:33:34;3.40;;;3.10;;
12925;SDS011;6529;50.566;9.774;2022-08-01T04:36:01;3.17;;;2.90;;
12925;SDS011;6529;50.566;9.774;2022-08-01T04:38:31;3.40;;;3.10;;
12925;SDS011;6529;50.566;9.774;2022-08-01T04:41:01;3.63;;;3.10;;
12925;SDS011;6529;50.566;9.774;2022-08-01T04:43:27;4.78;;;3.20;;
12925;SDS011;6529;50.566;9.774;2022-08-01T04:45:53;2.83;;;2.63;;
12925;SDS011;6529;50.566;9.774;2022-08-01T04:48:20;3.47;;;3.17;;
12925;SDS011;6529;50.566;9.774;2022-08-01T04:50:46;3.50;;;3.20;;
12925;SDS011;6529;50.566;9.774;2022-08-01T04:53:15;3.70;;;2.97;;
12925;SDS011;6529;50.566;9.774;2022-08-01T04:55:45;3.30;;;2.97;;
12925;SDS011;6529;50.566;9.774;2022-08-01T04:58:11;3.80;;;2.80;;
12925;SDS011;6529;50.566;9.774;2022-08-01T05:00:37;3.50;;;2.87;;
12925;SDS011;6529;50.566;9.774;2022-08-01T05:03:02;3.30;;;3.00;;
12925;SDS011;6529;50.566;9.774;2022-08-01T05:05:28;3.10;;;2.80;;
12925;SDS011;6529;50.566;9.774;2022-08-01T05:07:55;3.23;;;2.80;;
12925;SDS011;6529;50.566;9.774;2022-08-01T05:10:21;3.17;;;2.87;;
12925;SDS011;6529;50.566;9.774;2022-08-01T05:12:46;3.17;;;2.90;;
12925;SDS011;6529;50.566;9.774;2022-08-01T05:15:12;3.60;;;2.93;;
12925;SDS011;6529;50.566;9.774;2022-08-01T05:17:38;3.30;;;3.00;;
12925;SDS011;6529;50.566;9.774;2022-08-01T05:20:03;5.83;;;3.20;;
12925;SDS011;6529;50.566;9.774;2022-08-01T05:22:31;4.07;;;3.10;;
12925;SDS011;6529;50.566;9.774;2022-08-01T05:24:57;3.40;;;3.10;;
12925;SDS011;6529;50.566;9.774;2022-08-01T05:27:22;4.13;;;3.33;;
12925;SDS011;6529;50.566;9.774;2022-08-01T05:29:48;3.97;;;3.23;;
12925;SDS011;6529;50.566;9.774;2022-08-01T05:32:13;5.83;;;3.40;;
12925;SDS011;6529;50.566;9.774;2022-08-01T05:34:39;3.37;;;3.07;;
12925;SDS011;6529;50.566;9.774;2022-08-01T05:37:04;5.93;;;3.47;;
12925;SDS011;6529;50.566;9.774;2022-08-01T05:39:30;3.40;;;3.10;;
12925;SDS011;6529;50.566;9.774;2022-08-01T05:41:56;4.20;;;3.53;;
12925;SDS011;6529;50.566;9.774;2022-08-01T05:44:21;5.53;;;3.80;;
12925;SDS011;6529;50.566;9.774;2022-08-01T05:46:47;4.23;;;3.83;;
12925;SDS011;6529;50.566;9.774;2022-08-01T05:49:12;3.87;;;3.50;;
12925;SDS011;6529;50.566;9.774;2022-08-01T05:51:38;4.60;;;4.20;;
12925;SDS011;6529;50.566;9.774;2022-08-01T05:54:04;4.50;;;4.10;;
12925;SDS011;6529;50.566;9.774;2022-08-01T05:56:29;4.50;;;4.10;;
12925;SDS011;6529;50.566;9.774;2022-08-01T05:58:55;4.10;;;3.70;;
12925;SDS011;6529;50.566;9.774;2022-08-01T06:01:21;3.90;;;3.60;;
12925;SDS011;6529;50.566;9.774;2022-08-01T06:03:46;5.03;;;3.88;;
12925;SDS011;6529;50.566;9.774;2022-08-01T06:06:12;4.25;;;3.78;;
12925;SDS011;6529;50.566;9.774;2022-08-01T06:08:38;6.57;;;4.22;;
12925;SDS011;6529;50.566;9.774;2022-08-01T06:11:04;5.60;;;4.22;;
12925;SDS011;6529;50.566;9.774;2022-08-01T06:13:30;4.78;;;4.28;;
12925;SDS011;6529;50.566;9.774;2022-08-01T06:15:56;4.73;;;4.10;;
12925;SDS011;6529;50.566;9.774;2022-08-01T06:18:22;4.38;;;3.88;;
12925;SDS011;6529;50.566;9.774;2022-08-01T06:20:48;4.55;;;4.15;;
12925;SDS011;6529;50.566;9.774;2022-08-01T06:23:14;5.27;;;4.23;;
12925;SDS011;6529;50.566;9.774;2022-08-01T06:25:41;5.20;;;4.25;;
12925;SDS011;6529;50.566;9.774;2022-08-01T06:28:07;4.85;;;4.30;;
12925;SDS011;6529;50.566;9.774;2022-08-01T06:30:33;5.05;;;4.55;;
12925;SDS011;6529;50.566;9.774;2022-08-01T06:32:59;5.28;;;4.75;;
12925;SDS011;6529;50.566;9.774;2022-08-01T06:35:25;5.03;;;4.25;;
12925;SDS011;6529;50.566;9.774;2022-08-01T06:37:51;5.32;;;4.45;;
12925;SDS011;6529;50.566;9.774;2022-08-01T06:40:17;5.22;;;4.60;;
12925;SDS011;6529;50.566;9.774;2022-08-01T06:42:43;5.30;;;4.60;;
12925;SDS011;6529;50.566;9.774;2022-08-01T06:45:11;5.32;;;4.68;;
12925;SDS011;6529;50.566;9.774;2022-08-01T06:47:38;6.00;;;4.63;;
12925;SDS011;6529;50.566;9.774;2022-08-01T06:50:05;4.03;;;3.63;;
12925;SDS011;6529;50.566;9.774;2022-08-01T06:52:32;6.10;;;5.20;;
12925;SDS011;6529;50.566;9.774;2022-08-01T06:54:58;5.38;;;4.88;;
12925;SDS011;6529;50.566;9.774;2022-08-01T06:57:25;4.93;;;4.43;;
12925;SDS011;6529;50.566;9.774;2022-08-01T06:59:50;4.93;;;4.53;;
12925;SDS011;6529;50.566;9.774;2022-08-01T07:02:16;5.70;;;4.93;;
12925;SDS011;6529;50.566;9.774;2022-08-01T07:04:42;4.85;;;4.45;;
12925;SDS011;6529;50.566;9.774;2022-08-01T07:07:08;6.22;;;5.25;;
12925;SDS011;6529;50.566;9.774;2022-08-01T07:09:33;7.10;;;4.95;;
12925;SDS011;6529;50.566;9.774;2022-08-01T07:11:59;5.50;;;4.68;;
12925;SDS011;6529;50.566;9.774;2022-08-01T07:14:24;5.90;;;4.38;;
12925;SDS011;6529;50.566;9.774;2022-08-01T07:16:50;5.30;;;4.80;;
12925;SDS011;6529;50.566;9.774;2022-08-01T07:19:16;5.35;;;4.85;;
12925;SDS011;6529;50.566;9.774;2022-08-01T07:21:43;5.75;;;5.10;;
12925;SDS011;6529;50.566;9.774;2022-08-01T07:24:10;4.18;;;3.78;;
12925;SDS011;6529;50.566;9.774;2022-08-01T07:26:37;4.63;;;4.20;;
12925;SDS011;6529;50.566;9.774;2022-08-01T07:29:03;4.28;;;3.80;;
12925;SDS011;6529;50.566;9.774;2022-08-01T07:31:30;3.75;;;3.38;;
12925;SDS011;6529;50.566;9.774;2022-08-01T07:33:55;5.22;;;3.90;;
12925;SDS011;6529;50.566;9.774;2022-08-01T07:36:21;4.28;;;3.65;;
12925;SDS011;6529;50.566;9.774;2022-08-01T07:38:46;4.40;;;3.83;;
12925;SDS011;6529;50.566;9.774;2022-08-01T07:41:12;4.53;;;3.67;;
12925;SDS011;6529;50.566;9.774;2022-08-01T07:43:38;3.83;;;3.47;;
12925;SDS011;6529;50.566;9.774;2022-08-01T07:46:04;3.83;;;3.45;;
12925;SDS011;6529;50.566;9.774;2022-08-01T07:48:29;4.28;;;3.88;;
12925;SDS011;6529;50.566;9.774;2022-08-01T07:50:55;4.28;;;3.40;;
12925;SDS011;6529;50.566;9.774;2022-08-01T07:53:21;3.60;;;3.30;;
12925;SDS011;6529;50.566;9.774;2022-08-01T07:55:47;3.75;;;3.40;;
12925;SDS011;6529;50.566;9.774;2022-08-01T07:58:13;3.65;;;3.35;;
12925;SDS011;6529;50.566;9.774;2022-08-01T08:00:39;3.80;;;3.50;;
12925;SDS011;6529;50.566;9.774;2022-08-01T08:03:05;3.97;;;3.58;;
12925;SDS011;6529;50.566;9.774;2022-08-01T08:05:31;3.35;;;3.00;;
12925;SDS011;6529;50.566;9.774;2022-08-01T08:08:00;4.07;;;3.05;;
12925;SDS011;6529;50.566;9.774;2022-08-01T08:10:35;3.30;;;2.97;;
12925;SDS011;6529;50.566;9.774;2022-08-01T08:13:01;3.20;;;3.00;;
12925;SDS011;6529;50.566;9.774;2022-08-01T08:15:27;3.50;;;3.20;;
12925;SDS011;6529;50.566;9.774;2022-08-01T08:17:53;3.15;;;2.92;;
12925;SDS011;6529;50.566;9.774;2022-08-01T08:20:19;3.40;;;3.10;;
12925;SDS011;6529;50.566;9.774;2022-08-01T08:22:49;4.82;;;3.08;;
12925;SDS011;6529;50.566;9.774;2022-08-01T08:25:15;3.15;;;2.90;;
12925;SDS011;6529;50.566;9.774;2022-08-01T08:27:41;3.22;;;2.88;;
12925;SDS011;6529;50.566;9.774;2022-08-01T08:30:07;3.35;;;2.83;;
12925;SDS011;6529;50.566;9.774;2022-08-01T08:32:34;3.00;;;2.70;;
12925;SDS011;6529;50.566;9.774;2022-08-01T08:35:00;3.38;;;2.67;;
12925;SDS011;6529;50.566;9.774;2022-08-01T08:37:26;3.47;;;2.42;;
12925;SDS011;6529;50.566;9.774;2022-08-01T08:39:52;3.20;;;2.90;;
12925;SDS011;6529;50.566;9.774;2022-08-01T08:42:17;3.35;;;2.72;;
12925;SDS011;6529;50.566;9.774;2022-08-01T08:44:43;3.30;;;3.00;;
12925;SDS011;6529;50.566;9.774;2022-08-01T08:47:10;3.03;;;2.70;;
12925;SDS011;6529;50.566;9.774;2022-08-01T08:49:37;3.05;;;2.75;;
12925;SDS011;6529;50.566;9.774;2022-08-01T08:52:03;3.03;;;2.83;;
12925;SDS011;6529;50.566;9.774;2022-08-01T08:54:30;3.25;;;2.88;;
12925;SDS011;6529;50.566;9.774;2022-08-01T08:56:57;3.10;;;2.80;;
12925;SDS011;6529;50.566;9.774;2022-08-01T08:59:24;2.80;;;2.60;;
12925;SDS011;6529;50.566;9.774;2022-08-01T09:01:50;2.97;;;2.78;;
12925;SDS011;6529;50.566;9.774;2022-08-01T09:04:16;3.40;;;3.10;;
12925;SDS011;6529;50.566;9.774;2022-08-01T09:06:42;3.00;;;2.80;;
12925;SDS011;6529;50.566;9.774;2022-08-01T09:09:08;2.97;;;2.78;;
12925;SDS011;6529;50.566;9.774;2022-08-01T09:11:35;2.85;;;2.65;;
12925;SDS011;6529;50.566;9.774;2022-08-01T09:14:14;3.55;;;3.25;;
12925;SDS011;6529;50.566;9.774;2022-08-01T09:17:07;3.28;;;2.97;;
12925;SDS011;6529;50.566;9.774;2022-08-01T09:19:36;3.70;;;3.40;;
12925;SDS011;6529;50.566;9.774;2022-08-01T09:22:14;3.22;;;2.92;;
12925;SDS011;6529;50.566;9.774;2022-08-01T09:24:58;3.58;;;3.25;;
12925;SDS011;6529;50.566;9.774;2022-08-01T09:27:34;3.40;;;3.10;;
12925;SDS011;6529;50.566;9.774;2022-08-01T09:30:07;4.53;;;3.50;;
12925;SDS011;6529;50.566;9.774;2022-08-01T09:32:34;3.63;;;3.33;;
12925;SDS011;6529;50.566;9.774;2022-08-01T09:35:21;3.95;;;3.55;;
12925;SDS011;6529;50.566;9.774;2022-08-01T09:40:46;4.10;;;3.70;;
12925;SDS011;6529;50.566;9.774;2022-08-01T09:43:19;4.18;;;3.78;;
12925;SDS011;6529;50.566;9.774;2022-08-01T09:45:46;3.88;;;3.58;;
12925;SDS011;6529;50.566;9.774;2022-08-01T09:48:12;4.20;;;3.80;;
12925;SDS011;6529;50.566;9.774;2022-08-01T09:50:39;4.32;;;3.92;;
12925;SDS011;6529;50.566;9.774;2022-08-01T09:53:11;3.97;;;3.55;;
12925;SDS011;6529;50.566;9.774;2022-08-01T09:55:38;4.72;;;4.22;;
12925;SDS011;6529;50.566;9.774;2022-08-01T09:58:05;4.38;;;3.97;;
12925;SDS011;6529;50.566;9.774;2022-08-01T10:00:32;4.32;;;3.92;;
12925;SDS011;6529;50.566;9.774;2022-08-01T10:02:59;4.57;;;4.00;;
12925;SDS011;6529;50.566;9.774;2022-08-01T10:05:34;4.68;;;3.65;;
12925;SDS011;6529;50.566;9.774;2022-08-01T10:08:02;4.28;;;3.88;;
12925;SDS011;6529;50.566;9.774;2022-08-01T10:10:29;3.97;;;3.58;;
12925;SDS011;6529;50.566;9.774;2022-08-01T10:12:57;4.35;;;3.95;;
12925;SDS011;6529;50.566;9.774;2022-08-01T10:15:23;4.25;;;3.90;;
12925;SDS011;6529;50.566;9.774;2022-08-01T10:17:52;4.60;;;4.20;;
12925;SDS011;6529;50.566;9.774;2022-08-01T10:20:20;5.38;;;4.30;;
12925;SDS011;6529;50.566;9.774;2022-08-01T10:22:49;4.75;;;4.25;;
12925;SDS011;6529;50.566;9.774;2022-08-01T10:25:19;4.72;;;4.22;;
12925;SDS011;6529;50.566;9.774;2022-08-01T10:27:47;4.45;;;4.05;;
12925;SDS011;6529;50.566;9.774;2022-08-01T10:30:15;5.05;;;4.55;;
12925;SDS011;6529;50.566;9.774;2022-08-01T10:32:41;4.53;;;3.95;;
12925;SDS011;6529;50.566;9.774;2022-08-01T10:35:09;4.72;;;3.97;;
12925;SDS011;6529;50.566;9.774;2022-08-01T10:37:42;4.60;;;4.00;;
12925;SDS011;6529;50.566;9.774;2022-08-01T10:40:09;4.97;;;4.28;;
12925;SDS011;6529;50.566;9.774;2022-08-01T10:42:38;5.18;;;3.97;;
12925;SDS011;6529;50.566;9.774;2022-08-01T10:45:09;4.47;;;4.05;;
12925;SDS011;6529;50.566;9.774;2022-08-01T10:47:38;4.20;;;3.80;;
12925;SDS011;6529;50.566;9.774;2022-08-01T10:50:29;3.90;;;3.20;;
12925;SDS011;6529;50.566;9.774;2022-08-01T10:56:07;4.50;;;4.10;;
12925;SDS011;6529;50.566;9.774;2022-08-01T10:58:38;4.53;;;4.13;;
12925;SDS011;6529;50.566;9.774;2022-08-01T11:01:20;4.38;;;3.97;;
12925;SDS011;6529;50.566;9.774;2022-08-01T11:09:03;4.50;;;4.07;;
12925;SDS011;6529;50.566;9.774;2022-08-01T11:11:30;5.07;;;4.57;;
12925;SDS011;6529;50.566;9.774;2022-08-01T11:14:00;4.50;;;4.10;;
12925;SDS011;6529;50.566;9.774;2022-08-01T11:16:29;4.93;;;3.95;;
12925;SDS011;6529;50.566;9.774;2022-08-01T11:18:57;4.18;;;3.78;;
12925;SDS011;6529;50.566;9.774;2022-08-01T11:21:57;4.03;;;3.58;;
12925;SDS011;6529;50.566;9.774;2022-08-01T11:27:21;1.95;;;1.67;;
12925;SDS011;6529;50.566;9.774;2022-08-01T11:30:21;8.20;;;1.60;;
12925;SDS011;6529;50.566;9.774;2022-08-01T11:32:47;1.95;;;1.60;;
12925;SDS011;6529;50.566;9.774;2022-08-01T11:35:13;1.52;;;1.42;;
12925;SDS011;6529;50.566;9.774;2022-08-01T11:37:39;2.22;;;1.70;;
12925;SDS011;6529;50.566;9.774;2022-08-01T11:42:41;1.90;;;1.50;;
12925;SDS011;6529;50.566;9.774;2022-08-01T11:45:07;2.20;;;1.77;;
12925;SDS011;6529;50.566;9.774;2022-08-01T11:47:42;3.45;;;1.85;;
12925;SDS011;6529;50.566;9.774;2022-08-01T11:53:11;1.52;;;1.40;;
12925;SDS011;6529;50.566;9.774;2022-08-01T11:55:43;2.97;;;1.95;;
12925;SDS011;6529;50.566;9.774;2022-08-01T11:58:13;1.70;;;1.60;;
12925;SDS011;6529;50.566;9.774;2022-08-01T12:00:40;1.83;;;1.50;;
12925;SDS011;6529;50.566;9.774;2022-08-01T12:03:07;2.88;;;2.30;;
12925;SDS011;6529;50.566;9.774;2022-08-01T12:05:34;1.70;;;1.60;;
12925;SDS011;6529;50.566;9.774;2022-08-01T12:08:02;2.45;;;2.17;;
12925;SDS011;6529;50.566;9.774;2022-08-01T12:10:30;2.33;;;1.88;;
12925;SDS011;6529;50.566;9.774;2022-08-01T12:13:02;2.75;;;2.30;;
12925;SDS011;6529;50.566;9.774;2022-08-01T12:15:30;3.10;;;2.80;;
12925;SDS011;6529;50.566;9.774;2022-08-01T12:17:58;2.38;;;1.80;;
12925;SDS011;6529;50.566;9.774;2022-08-01T12:20:27;2.47;;;2.00;;
12925;SDS011;6529;50.566;9.774;2022-08-01T12:22:55;2.10;;;1.90;;
12925;SDS011;6529;50.566;9.774;2022-08-01T12:25:22;2.05;;;1.58;;
12925;SDS011;6529;50.566;9.774;2022-08-01T12:27:48;1.77;;;1.40;;
12925;SDS011;6529;50.566;9.774;2022-08-01T12:30:18;4.22;;;1.38;;
12925;SDS011;6529;50.566;9.774;2022-08-01T12:32:55;2.20;;;1.33;;
12925;SDS011;6529;50.566;9.774;2022-08-01T12:35:22;1.48;;;1.38;;
12925;SDS011;6529;50.566;9.774;2022-08-01T12:38:00;1.45;;;1.35;;
12925;SDS011;6529;50.566;9.774;2022-08-01T12:40:31;1.38;;;1.20;;
12925;SDS011;6529;50.566;9.774;2022-08-01T12:42:59;1.75;;;1.55;;
12925;SDS011;6529;50.566;9.774;2022-08-01T12:45:28;2.58;;;1.67;;
12925;SDS011;6529;50.566;9.774;2022-08-01T12:48:07;1.58;;;1.45;;
12925;SDS011;6529;50.566;9.774;2022-08-01T12:50:36;1.70;;;1.60;;
12925;SDS011;6529;50.566;9.774;2022-08-01T12:53:07;3.20;;;1.52;;
12925;SDS011;6529;50.566;9.774;2022-08-01T12:55:41;2.25;;;1.90;;
12925;SDS011;6529;50.566;9.774;2022-08-01T12:58:16;2.67;;;1.35;;
12925;SDS011;6529;50.566;9.774;2022-08-01T13:00:44;1.60;;;1.40;;
12925;SDS011;6529;50.566;9.774;2022-08-01T13:03:11;1.50;;;1.40;;
12925;SDS011;6529;50.566;9.774;2022-08-01T13:08:18;1.67;;;1.55;;
12925;SDS011;6529;50.566;9.774;2022-08-01T13:10:44;3.35;;;1.48;;
12925;SDS011;6529;50.566;9.774;2022-08-01T13:13:11;1.80;;;1.10;;
12925;SDS011;6529;50.566;9.774;2022-08-01T13:15:39;1.33;;;0.95;;
12925;SDS011;6529;50.566;9.774;2022-08-01T13:18:25;2.67;;;1.30;;
12925;SDS011;6529;50.566;9.774;2022-08-01T13:23:41;1.30;;;1.20;;
12925;SDS011;6529;50.566;9.774;2022-08-01T13:26:46;2.55;;;1.75;;
12925;SDS011;6529;50.566;9.774;2022-08-01T13:29:14;1.20;;;1.10;;
12925;SDS011;6529;50.566;9.774;2022-08-01T13:31:41;1.50;;;1.40;;
12925;SDS011;6529;50.566;9.774;2022-08-01T13:34:08;1.50;;;1.35;;
12925;SDS011;6529;50.566;9.774;2022-08-01T13:36:35;1.95;;;1.48;;
12925;SDS011;6529;50.566;9.774;2022-08-01T13:39:02;2.22;;;1.50;;
12925;SDS011;6529;50.566;9.774;2022-08-01T13:41:46;2.05;;;1.50;;
12925;SDS011;6529;50.566;9.774;2022-08-01T13:44:12;1.50;;;1.30;;
12925;SDS011;6529;50.566;9.774;2022-08-01T13:46:39;1.30;;;1.20;;
12925;SDS011;6529;50.566;9.774;2022-08-01T13:49:06;2.75;;;1.90;;
12925;SDS011;6529;50.566;9.774;2022-08-01T13:51:32;2.33;;;1.75;;
12925;SDS011;6529;50.566;9.774;2022-08-01T13:53:58;1.70;;;1.30;;
12925;SDS011;6529;50.566;9.774;2022-08-01T13:56:24;1.42;;;1.33;;
12925;SDS011;6529;50.566;9.774;2022-08-01T13:58:52;1.40;;;1.30;;
12925;SDS011;6529;50.566;9.774;2022-08-01T14:01:18;1.30;;;1.20;;
12925;SDS011;6529;50.566;9.774;2022-08-01T14:03:45;1.80;;;1.35;;
12925;SDS011;6529;50.566;9.774;2022-08-01T14:06:11;1.33;;;1.23;;
12925;SDS011;6529;50.566;9.774;2022-08-01T14:12:11;1.55;;;1.42;;
12925;SDS011;6529;50.566;9.774;2022-08-01T14:18:20;1.67;;;1.58;;
12925;SDS011;6529;50.566;9.774;2022-08-01T14:23:57;2.00;;;1.40;;
12925;SDS011;6529;50.566;9.774;2022-08-01T14:26:44;1.73;;;1.52;;
12925;SDS011;6529;50.566;9.774;2022-08-01T14:29:38;1.92;;;1.50;;
12925;SDS011;6529;50.566;9.774;2022-08-01T14:32:14;1.65;;;1.40;;
12925;SDS011;6529;50.566;9.774;2022-08-01T14:34:42;2.05;;;1.38;;
12925;SDS011;6529;50.566;9.774;2022-08-01T14:37:08;1.67;;;1.40;;
12925;SDS011;6529;50.566;9.774;2022-08-01T14:39:33;2.33;;;2.13;;
12925;SDS011;6529;50.566;9.774;2022-08-01T14:41:59;2.20;;;2.00;;
12925;SDS011;6529;50.566;9.774;2022-08-01T14:44:24;3.47;;;2.38;;
12925;SDS011;6529;50.566;9.774;2022-08-01T14:46:50;2.50;;;2.22;;
12925;SDS011;6529;50.566;9.774;2022-08-01T14:49:16;2.58;;;2.38;;
12925;SDS011;6529;50.566;9.774;2022-08-01T14:51:41;2.55;;;2.35;;
12925;SDS011;6529;50.566;9.774;2022-08-01T14:54:07;2.63;;;2.42;;
12925;SDS011;6529;50.566;9.774;2022-08-01T14:56:32;3.17;;;2.40;;
12925;SDS011;6529;50.566;9.774;2022-08-01T14:58:58;2.72;;;2.40;;
12925;SDS011;6529;50.566;9.774;2022-08-01T15:01:24;2.00;;;1.58;;
12925;SDS011;6529;50.566;9.774;2022-08-01T15:03:50;2.40;;;2.10;;
12925;SDS011;6529;50.566;9.774;2022-08-01T15:06:16;2.40;;;2.20;;
12925;SDS011;6529;50.566;9.774;2022-08-01T15:08:42;3.00;;;2.35;;
12925;SDS011;6529;50.566;9.774;2022-08-01T15:14:30;2.50;;;2.30;;
12925;SDS011;6529;50.566;9.774;2022-08-01T15:17:23;3.05;;;2.22;;
12925;SDS011;6529;50.566;9.774;2022-08-01T15:19:52;2.58;;;2.38;;
12925;SDS011;6529;50.566;9.774;2022-08-01T15:22:22;2.63;;;2.42;;
12925;SDS011;6529;50.566;9.774;2022-08-01T15:24:49;2.60;;;2.40;;
12925;SDS011;6529;50.566;9.774;2022-08-01T15:27:15;2.90;;;2.70;;
12925;SDS011;6529;50.566;9.774;2022-08-01T15:29:41;2.92;;;2.40;;
12925;SDS011;6529;50.566;9.774;2022-08-01T15:32:07;2.78;;;2.58;;
12925;SDS011;6529;50.566;9.774;2022-08-01T15:34:34;2.70;;;2.50;;
12925;SDS011;6529;50.566;9.774;2022-08-01T15:37:01;2.40;;;2.20;;
12925;SDS011;6529;50.566;9.774;2022-08-01T15:39:27;2.70;;;2.50;;
12925;SDS011;6529;50.566;9.774;2022-08-01T15:41:53;2.90;;;2.67;;
12925;SDS011;6529;50.566;9.774;2022-08-01T15:44:19;2.65;;;2.45;;
12925;SDS011;6529;50.566;9.774;2022-08-01T15:46:47;2.50;;;2.30;;
12925;SDS011;6529;50.566;9.774;2022-08-01T15:49:13;2.53;;;2.33;;
12925;SDS011;6529;50.566;9.774;2022-08-01T15:51:39;3.03;;;2.70;;
12925;SDS011;6529;50.566;9.774;2022-08-01T15:54:05;3.22;;;2.92;;
12925;SDS011;6529;50.566;9.774;2022-08-01T15:56:34;2.90;;;2.70;;
12925;SDS011;6529;50.566;9.774;2022-08-01T15:59:01;4.95;;;3.20;;